Time;durP1;ratioP1;P1;durP2;ratioP2;P2;SDS_P1;SDS_P2;PMS_P1;PMS_P2;Temp;Humidity;BMP_temperature;BMP_pressure;BME280_temperature;BME280_humidity;BME280_pressure;Samples;Min_cycle;Max_cycle;Signal;HPM_P1;HPM_P2
2023/04/28 00:01:58;;;;;;;12.07;8.38;;;9.10;99.90;;;;;;4928215;29;20166;-65
2023/04/28 00:04:24;;;;;;;14.50;9.02;;;9.10;99.90;;;;;;4930386;29;20118;-65
2023/04/28 00:06:50;;;;;;;11.63;8.60;;;9.10;99.90;;;;;;4929864;29;20523;-65
2023/04/28 00:09:15;;;;;;;14.45;8.82;;;9.10;99.90;;;;;;4928063;29;20075;-65
2023/04/28 00:11:43;;;;;;;13.90;9.48;;;9.10;99.90;;;;;;4926821;29;20051;-65
2023/04/28 00:14:09;;;;;;;15.30;9.40;;;9.00;99.90;;;;;;4925737;29;20216;-67
2023/04/28 00:16:35;;;;;;;13.98;9.07;;;8.90;99.90;;;;;;4927744;29;20126;-65
2023/04/28 00:19:00;;;;;;;16.00;9.95;;;8.90;99.90;;;;;;4925371;29;20117;-65
2023/04/28 00:21:27;;;;;;;13.10;9.20;;;8.90;99.90;;;;;;4928151;29;20740;-65
2023/04/28 00:23:53;;;;;;;16.23;10.00;;;8.80;99.90;;;;;;4925392;29;20043;-65
2023/04/28 00:26:19;;;;;;;14.98;9.95;;;8.70;99.90;;;;;;4927044;29;20050;-67
2023/04/28 00:28:45;;;;;;;13.05;8.50;;;8.70;99.90;;;;;;4926252;29;20130;-67
2023/04/28 00:31:12;;;;;;;13.57;9.27;;;8.70;99.90;;;;;;4924742;29;20063;-66
2023/04/28 00:33:39;;;;;;;12.82;9.30;;;8.70;99.90;;;;;;4927715;29;20054;-66
2023/04/28 00:36:05;;;;;;;13.57;9.77;;;8.70;99.90;;;;;;4925914;29;20439;-64
2023/04/28 00:38:31;;;;;;;13.52;8.88;;;8.60;99.90;;;;;;4929671;29;20107;-66
2023/04/28 00:40:56;;;;;;;14.00;8.75;;;8.60;99.90;;;;;;4926391;29;20074;-65
2023/04/28 00:43:22;;;;;;;12.63;9.23;;;8.60;99.90;;;;;;4926784;29;20036;-64
2023/04/28 00:45:49;;;;;;;13.95;9.40;;;8.60;99.90;;;;;;4926601;29;20130;-64
2023/04/28 00:48:15;;;;;;;19.30;9.02;;;8.60;99.90;;;;;;4927994;29;20779;-66
2023/04/28 00:50:42;;;;;;;16.55;9.02;;;8.60;99.90;;;;;;4928391;29;20055;-65
2023/04/28 00:53:09;;;;;;;14.73;9.45;;;8.60;99.90;;;;;;4926001;29;20055;-67
2023/04/28 00:55:35;;;;;;;14.55;9.02;;;8.60;99.90;;;;;;4928586;29;20087;-64
2023/04/28 00:58:01;;;;;;;14.48;9.60;;;8.60;99.90;;;;;;4926857;29;20047;-65
2023/04/28 01:00:27;;;;;;;14.30;8.80;;;8.50;99.90;;;;;;4928439;29;20499;-65
2023/04/28 01:02:53;;;;;;;11.77;8.68;;;8.50;99.90;;;;;;4929903;29;20039;-64
2023/04/28 01:05:20;;;;;;;12.90;8.82;;;8.50;99.90;;;;;;4927544;29;20062;-64
2023/04/28 01:07:45;;;;;;;12.65;9.38;;;8.50;99.90;;;;;;4928712;29;20043;-65
2023/04/28 01:10:11;;;;;;;14.15;9.40;;;8.50;99.90;;;;;;4929397;29;20476;-64
2023/04/28 01:12:36;;;;;;;13.52;9.48;;;8.40;99.90;;;;;;4928346;29;20058;-63
2023/04/28 01:15:02;;;;;;;13.77;9.25;;;8.30;99.90;;;;;;4927017;29;20061;-65
2023/04/28 01:17:28;;;;;;;13.43;9.32;;;8.20;99.90;;;;;;4928848;29;20070;-65
2023/04/28 01:19:54;;;;;;;15.90;9.15;;;8.30;99.90;;;;;;4928767;29;20199;-67
2023/04/28 01:22:20;;;;;;;15.85;8.82;;;8.30;99.90;;;;;;4929221;29;20387;-65
2023/04/28 01:24:45;;;;;;;14.18;9.32;;;8.30;99.90;;;;;;4927167;29;20067;-66
2023/04/28 01:27:11;;;;;;;13.90;9.55;;;8.30;99.90;;;;;;4926651;29;20043;-65
2023/04/28 01:29:36;;;;;;;14.57;8.43;;;8.30;99.90;;;;;;4929878;29;20040;-64
2023/04/28 01:32:02;;;;;;;12.93;9.57;;;8.30;99.90;;;;;;4926976;29;20117;-66
2023/04/28 01:34:28;;;;;;;14.30;9.30;;;8.30;99.90;;;;;;4928433;29;20057;-65
2023/04/28 01:36:53;;;;;;;14.27;9.25;;;8.30;99.90;;;;;;4930237;29;20039;-65
2023/04/28 01:39:19;;;;;;;14.05;8.82;;;8.30;99.90;;;;;;4922970;29;20064;-65
2023/04/28 01:41:45;;;;;;;13.52;9.70;;;8.20;99.90;;;;;;4930705;29;20155;-65
2023/04/28 01:44:11;;;;;;;14.30;8.90;;;8.20;99.90;;;;;;4930373;29;21907;-65
2023/04/28 01:46:37;;;;;;;15.68;9.35;;;8.20;99.90;;;;;;4930865;29;20452;-64
2023/04/28 01:49:03;;;;;;;13.73;9.48;;;8.10;99.90;;;;;;4930729;29;20144;-65
2023/04/28 01:51:30;;;;;;;15.02;8.93;;;8.10;99.90;;;;;;4927947;29;20409;-65
2023/04/28 01:53:55;;;;;;;12.93;8.90;;;8.10;99.90;;;;;;4925475;29;20048;-64
2023/04/28 01:56:21;;;;;;;14.05;8.40;;;8.10;99.90;;;;;;4931207;29;20131;-65
2023/04/28 01:58:47;;;;;;;13.63;8.77;;;8.10;99.90;;;;;;4929511;29;20055;-65
2023/04/28 02:01:12;;;;;;;12.32;8.48;;;8.20;99.90;;;;;;4931789;29;20043;-65
2023/04/28 02:03:38;;;;;;;13.82;8.35;;;8.20;99.90;;;;;;4931499;29;20086;-65
2023/04/28 02:06:04;;;;;;;14.23;8.85;;;8.10;99.90;;;;;;4925943;29;20046;-65
2023/04/28 02:08:29;;;;;;;15.30;8.50;;;8.10;99.90;;;;;;4931762;29;20040;-64
2023/04/28 02:10:56;;;;;;;13.25;8.38;;;8.10;99.90;;;;;;4930705;29;20091;-65
2023/04/28 02:13:22;;;;;;;13.05;9.05;;;8.10;99.90;;;;;;4933747;29;20048;-65
2023/04/28 02:15:48;;;;;;;13.60;8.77;;;8.20;99.90;;;;;;4931980;29;20169;-65
2023/04/28 02:18:13;;;;;;;13.70;8.93;;;8.10;99.90;;;;;;4932166;29;20074;-64
2023/04/28 02:20:39;;;;;;;13.23;8.70;;;8.10;99.90;;;;;;4931299;29;20136;-64
2023/04/28 02:23:05;;;;;;;13.95;8.93;;;8.00;99.90;;;;;;4928986;29;20214;-65
2023/04/28 02:25:31;;;;;;;13.43;8.43;;;8.00;99.90;;;;;;4927508;29;20036;-65
2023/04/28 02:27:59;;;;;;;13.15;8.63;;;7.90;99.90;;;;;;4929305;29;20111;-65
2023/04/28 02:30:25;;;;;;;15.90;8.73;;;7.90;99.90;;;;;;4926824;29;20136;-64
2023/04/28 02:32:51;;;;;;;13.30;8.70;;;8.00;99.90;;;;;;4931467;29;20554;-64
2023/04/28 02:35:16;;;;;;;11.32;8.13;;;8.00;99.90;;;;;;4925792;29;20154;-65
2023/04/28 02:37:42;;;;;;;12.73;8.57;;;8.00;99.90;;;;;;4929841;29;20036;-65
2023/04/28 02:40:08;;;;;;;15.10;9.50;;;8.00;99.90;;;;;;4927675;29;20418;-64
2023/04/28 02:42:33;;;;;;;15.52;8.90;;;8.00;99.90;;;;;;4930385;29;20039;-64
2023/04/28 02:44:59;;;;;;;12.15;7.90;;;8.00;99.90;;;;;;4929332;29;20126;-64
2023/04/28 02:47:24;;;;;;;13.32;8.07;;;8.00;99.90;;;;;;4931691;29;20554;-65
2023/04/28 02:49:50;;;;;;;12.18;8.55;;;8.00;99.90;;;;;;4927507;29;20051;-64
2023/04/28 02:52:16;;;;;;;15.00;8.65;;;8.00;99.90;;;;;;4928835;29;20120;-64
2023/04/28 02:54:41;;;;;;;14.55;8.70;;;8.00;99.90;;;;;;4927397;29;20198;-64
2023/04/28 02:57:07;;;;;;;13.80;8.68;;;8.00;99.90;;;;;;4928898;29;20055;-65
2023/04/28 02:59:33;;;;;;;16.20;8.73;;;8.00;99.90;;;;;;4929454;29;20135;-64
2023/04/28 03:01:58;;;;;;;13.38;9.13;;;8.00;99.90;;;;;;4926400;29;20216;-64
2023/04/28 03:04:24;;;;;;;12.80;8.35;;;8.00;99.90;;;;;;4929150;29;20446;-64
2023/04/28 03:06:50;;;;;;;12.90;8.68;;;8.00;99.90;;;;;;4928451;29;20063;-65
2023/04/28 03:09:16;;;;;;;13.45;8.68;;;8.00;99.90;;;;;;4940747;28;20043;-65
2023/04/28 03:11:41;;;;;;;13.82;8.88;;;8.00;99.90;;;;;;4925220;29;20106;-66
2023/04/28 03:14:07;;;;;;;11.80;8.45;;;8.00;99.90;;;;;;4925740;29;21897;-65
2023/04/28 03:16:32;;;;;;;11.75;8.57;;;8.00;99.90;;;;;;4923823;29;20047;-65
2023/04/28 03:18:58;;;;;;;13.82;8.88;;;7.90;99.90;;;;;;4922850;29;20407;-66
2023/04/28 03:21:26;;;;;;;12.95;8.68;;;8.00;99.90;;;;;;4923670;29;20055;-64
2023/04/28 03:23:52;;;;;;;16.88;8.95;;;8.00;99.90;;;;;;4926231;29;20391;-64
2023/04/28 03:26:18;;;;;;;12.60;8.38;;;8.00;99.90;;;;;;4930055;29;20052;-67
2023/04/28 03:28:43;;;;;;;14.15;9.02;;;8.00;99.90;;;;;;4929486;29;20166;-65
2023/04/28 03:31:09;;;;;;;15.60;9.48;;;8.00;99.90;;;;;;4930646;29;20099;-65
2023/04/28 03:33:35;;;;;;;14.85;10.20;;;8.00;99.90;;;;;;4933121;29;20039;-63
2023/04/28 03:36:00;;;;;;;14.15;9.38;;;8.00;99.90;;;;;;4933205;29;20130;-63
2023/04/28 03:38:26;;;;;;;13.18;8.80;;;8.00;99.90;;;;;;4934201;29;20176;-64
2023/04/28 03:40:52;;;;;;;13.18;9.32;;;8.00;99.90;;;;;;4933770;29;20114;-65
2023/04/28 03:43:18;;;;;;;13.60;9.05;;;8.00;99.90;;;;;;4933264;29;20487;-64
2023/04/28 03:45:43;;;;;;;14.13;9.02;;;8.00;99.90;;;;;;4932634;29;20051;-64
2023/04/28 03:48:09;;;;;;;13.55;9.40;;;8.00;99.90;;;;;;4932971;29;20139;-65
2023/04/28 03:50:34;;;;;;;16.70;9.55;;;7.90;99.90;;;;;;4928730;29;20054;-64
2023/04/28 03:53:01;;;;;;;12.68;9.05;;;7.90;99.90;;;;;;4939053;29;20048;-64
2023/04/28 03:55:26;;;;;;;14.95;9.45;;;7.90;99.90;;;;;;4931030;29;20044;-65
2023/04/28 03:57:52;;;;;;;18.52;9.65;;;7.80;99.90;;;;;;4930030;29;20169;-68
2023/04/28 04:00:18;;;;;;;14.40;9.52;;;7.80;99.90;;;;;;4928792;29;20054;-65
2023/04/28 04:02:43;;;;;;;14.68;9.52;;;7.80;99.90;;;;;;4930950;29;20398;-65
2023/04/28 04:05:09;;;;;;;14.20;9.45;;;7.80;99.90;;;;;;4911900;29;20055;-64
2023/04/28 04:07:34;;;;;;;13.93;8.73;;;7.80;99.90;;;;;;4927177;29;20069;-65
2023/04/28 04:10:00;;;;;;;13.02;9.20;;;7.80;99.90;;;;;;4928215;29;20094;-65
2023/04/28 04:12:26;;;;;;;15.00;9.25;;;7.90;99.90;;;;;;4927638;29;20118;-65
2023/04/28 04:14:51;;;;;;;14.65;9.50;;;7.90;99.90;;;;;;4925247;29;20067;-67
2023/04/28 04:17:17;;;;;;;14.75;9.30;;;7.90;99.90;;;;;;4925688;29;20040;-66
2023/04/28 04:19:42;;;;;;;14.02;9.98;;;7.90;99.90;;;;;;4926181;29;20047;-66
2023/04/28 04:22:08;;;;;;;13.73;9.20;;;7.90;99.90;;;;;;4925376;29;20082;-65
2023/04/28 04:24:33;;;;;;;15.60;9.68;;;7.90;99.90;;;;;;4926613;29;20405;-66
2023/04/28 04:26:59;;;;;;;15.68;9.85;;;7.90;99.90;;;;;;4924343;29;20134;-65
2023/04/28 04:29:25;;;;;;;13.73;9.40;;;7.90;99.90;;;;;;4927344;29;21794;-64
2023/04/28 04:31:50;;;;;;;15.25;9.52;;;7.90;99.90;;;;;;4927421;29;20051;-64
2023/04/28 04:34:16;;;;;;;14.88;9.55;;;7.90;99.90;;;;;;4924648;29;20418;-65
2023/04/28 04:36:43;;;;;;;15.23;10.10;;;8.00;99.90;;;;;;4925248;29;20055;-66
2023/04/28 04:39:08;;;;;;;16.05;9.80;;;8.00;99.90;;;;;;4926570;29;20139;-65
2023/04/28 04:41:34;;;;;;;16.13;9.95;;;7.90;99.90;;;;;;4928684;29;20528;-65
2023/04/28 04:44:00;;;;;;;14.38;9.68;;;7.90;99.90;;;;;;4925505;29;20071;-65
2023/04/28 04:46:25;;;;;;;15.40;10.23;;;7.90;99.90;;;;;;4924819;29;20050;-65
2023/04/28 04:48:51;;;;;;;12.80;9.02;;;8.00;99.90;;;;;;4924778;29;20051;-66
2023/04/28 04:51:17;;;;;;;13.45;8.98;;;8.00;99.90;;;;;;4927171;29;20043;-67
2023/04/28 04:53:42;;;;;;;15.48;9.43;;;8.00;99.90;;;;;;4925878;29;20118;-65
2023/04/28 04:56:08;;;;;;;14.57;9.93;;;8.00;99.90;;;;;;4925307;29;20058;-65
2023/04/28 04:58:33;;;;;;;15.48;9.38;;;8.00;99.90;;;;;;4926713;29;20055;-65
2023/04/28 05:00:59;;;;;;;13.77;9.43;;;8.10;99.90;;;;;;4926162;29;20040;-66
2023/04/28 05:03:27;;;;;;;11.90;8.48;;;8.10;99.90;;;;;;4925458;29;20135;-65
2023/04/28 05:05:53;;;;;;;14.00;9.25;;;8.10;99.90;;;;;;4925859;29;20058;-65
2023/04/28 05:08:18;;;;;;;14.38;9.35;;;8.10;99.90;;;;;;4929914;29;20051;-65
2023/04/28 05:10:44;;;;;;;13.40;9.30;;;8.10;99.90;;;;;;4930069;29;20046;-65
2023/04/28 05:13:09;;;;;;;14.93;9.55;;;8.10;99.90;;;;;;4925551;29;20178;-65
2023/04/28 05:15:35;;;;;;;15.65;9.55;;;8.10;99.90;;;;;;4926079;29;20478;-65
2023/04/28 05:18:07;;;;;;;13.10;9.32;;;8.10;99.90;;;;;;4929944;29;20098;-65
2023/04/28 05:20:33;;;;;;;14.60;9.15;;;8.20;99.90;;;;;;4930952;29;20039;-65
2023/04/28 05:22:58;;;;;;;12.50;9.20;;;8.10;99.90;;;;;;4927666;29;20047;-66
2023/04/28 05:25:24;;;;;;;15.27;8.68;;;8.20;99.90;;;;;;4927015;29;20078;-65
2023/04/28 05:27:50;;;;;;;13.57;9.75;;;8.20;99.90;;;;;;4929926;29;20047;-64
2023/04/28 05:30:15;;;;;;;14.52;9.98;;;8.30;99.90;;;;;;4929594;29;20095;-66
2023/04/28 05:32:41;;;;;;;15.15;9.40;;;8.30;99.90;;;;;;4929809;29;20035;-65
2023/04/28 05:35:09;;;;;;;13.55;8.70;;;8.30;99.90;;;;;;4931552;29;20052;-65
2023/04/28 05:37:36;;;;;;;14.02;9.10;;;8.30;99.90;;;;;;4933496;29;20048;-64
2023/04/28 05:40:02;;;;;;;14.40;8.65;;;8.30;99.90;;;;;;4933413;29;20422;-64
2023/04/28 05:42:28;;;;;;;12.73;9.15;;;8.30;99.90;;;;;;4926426;29;20311;-65
2023/04/28 05:44:53;;;;;;;15.52;9.70;;;8.30;99.90;;;;;;4934521;29;20039;-64
2023/04/28 05:47:19;;;;;;;11.80;8.80;;;8.40;99.90;;;;;;4928707;29;20052;-64
2023/04/28 05:49:44;;;;;;;13.73;9.30;;;8.40;99.90;;;;;;4934929;29;20043;-65
2023/04/28 05:52:10;;;;;;;14.07;9.15;;;8.40;99.90;;;;;;4930703;29;20052;-64
2023/04/28 05:54:36;;;;;;;12.38;8.48;;;8.40;99.90;;;;;;4927111;29;20407;-65
2023/04/28 05:57:02;;;;;;;13.20;8.77;;;8.40;99.90;;;;;;4935610;29;20051;-64
2023/04/28 05:59:29;;;;;;;14.25;8.88;;;8.40;99.90;;;;;;4932802;29;20532;-64
2023/04/28 06:01:55;;;;;;;12.68;8.30;;;8.50;99.90;;;;;;4933166;29;20102;-64
2023/04/28 06:04:20;;;;;;;12.63;8.55;;;8.50;99.90;;;;;;4927479;29;20036;-64
2023/04/28 06:06:46;;;;;;;12.02;8.18;;;8.60;99.90;;;;;;4927277;29;20054;-64
2023/04/28 06:09:11;;;;;;;13.63;8.95;;;8.60;99.90;;;;;;4927211;29;20154;-65
2023/04/28 06:11:37;;;;;;;13.48;8.75;;;8.50;99.90;;;;;;4926903;29;20178;-65
2023/04/28 06:14:03;;;;;;;11.25;8.00;;;8.50;99.90;;;;;;4929247;29;20067;-66
2023/04/28 06:16:29;;;;;;;13.20;8.88;;;8.50;99.90;;;;;;4929386;29;20040;-65
2023/04/28 06:18:54;;;;;;;13.52;8.20;;;8.60;99.90;;;;;;4928720;29;20040;-64
2023/04/28 06:21:20;;;;;;;13.20;8.20;;;8.50;99.90;;;;;;4926464;29;20040;-64
2023/04/28 06:23:46;;;;;;;12.77;8.45;;;8.60;99.90;;;;;;4925976;29;20051;-65
2023/04/28 06:26:11;;;;;;;14.40;8.30;;;8.60;99.90;;;;;;4924426;29;20448;-66
2023/04/28 06:28:37;;;;;;;10.95;7.55;;;8.70;99.90;;;;;;4930316;29;20043;-65
2023/04/28 06:31:03;;;;;;;12.93;8.63;;;8.80;99.90;;;;;;4928610;29;20036;-64
2023/04/28 06:33:28;;;;;;;12.68;8.05;;;8.80;99.90;;;;;;4926287;29;20079;-65
2023/04/28 06:35:54;;;;;;;13.23;8.60;;;8.90;99.90;;;;;;4927099;29;20044;-66
2023/04/28 06:38:20;;;;;;;11.18;7.57;;;8.90;99.90;;;;;;4928790;29;20354;-64
2023/04/28 06:40:45;;;;;;;14.27;8.18;;;9.10;99.90;;;;;;4913757;29;20040;-64
2023/04/28 06:43:11;;;;;;;14.13;8.05;;;9.20;99.90;;;;;;4931517;29;20046;-64
2023/04/28 06:45:38;;;;;;;11.20;7.47;;;9.30;99.90;;;;;;4928837;29;20058;-65
2023/04/28 06:48:04;;;;;;;12.13;7.88;;;9.40;99.90;;;;;;4932648;29;20060;-67
2023/04/28 06:50:30;;;;;;;13.85;8.13;;;9.50;99.90;;;;;;4926473;29;20433;-66
2023/04/28 06:52:57;;;;;;;11.52;7.80;;;9.50;99.90;;;;;;4930652;29;20195;-68
2023/04/28 06:55:23;;;;;;;11.68;7.80;;;9.50;99.90;;;;;;4926711;29;20066;-66
2023/04/28 06:57:49;;;;;;;11.70;7.80;;;9.60;99.90;;;;;;4930637;29;20040;-64
2023/04/28 07:00:15;;;;;;;12.38;7.80;;;9.60;99.90;;;;;;4927751;29;20058;-65
2023/04/28 07:02:41;;;;;;;14.50;8.13;;;9.70;99.90;;;;;;4928726;29;20104;-65
2023/04/28 07:05:07;;;;;;;11.90;7.63;;;9.70;99.90;;;;;;4931441;29;20052;-63
2023/04/28 07:07:33;;;;;;;11.60;7.72;;;9.70;99.90;;;;;;4932648;29;20051;-65
2023/04/28 07:09:59;;;;;;;11.00;7.38;;;9.70;99.90;;;;;;4929884;29;20089;-65
2023/04/28 07:12:26;;;;;;;12.43;7.50;;;9.80;99.90;;;;;;4933637;29;20123;-65
2023/04/28 07:14:51;;;;;;;11.60;7.70;;;9.80;99.90;;;;;;4931996;29;20056;-65
2023/04/28 07:17:17;;;;;;;12.23;7.85;;;9.90;99.90;;;;;;4924847;29;20035;-65
2023/04/28 07:19:42;;;;;;;12.35;7.95;;;9.90;99.90;;;;;;4928902;29;20043;-64
2023/04/28 07:22:08;;;;;;;13.48;8.30;;;10.00;99.90;;;;;;4926720;29;20047;-65
2023/04/28 07:24:34;;;;;;;12.40;8.40;;;10.20;99.90;;;;;;4934460;29;20496;-65
2023/04/28 07:27:00;;;;;;;12.23;8.38;;;10.40;99.90;;;;;;4933266;29;20039;-65
2023/04/28 07:29:28;;;;;;;13.73;7.65;;;10.50;99.90;;;;;;4933784;29;20098;-64
2023/04/28 07:31:53;;;;;;;12.20;7.75;;;10.50;99.90;;;;;;4931380;29;20139;-65
2023/04/28 07:34:19;;;;;;;11.55;7.50;;;10.50;99.90;;;;;;4935394;29;20134;-65
2023/04/28 07:36:45;;;;;;;12.63;8.38;;;10.60;99.90;;;;;;4931399;29;20047;-65
2023/04/28 07:39:11;;;;;;;14.25;8.80;;;10.50;99.90;;;;;;4922219;29;20090;-64
2023/04/28 07:41:37;;;;;;;11.60;7.75;;;10.50;99.90;;;;;;4922411;29;20097;-65
2023/04/28 07:44:05;;;;;;;13.27;8.40;;;10.50;99.90;;;;;;4921966;29;20099;-63
2023/04/28 07:46:31;;;;;;;13.10;8.30;;;10.50;99.90;;;;;;4922347;29;20075;-65
2023/04/28 07:48:56;;;;;;;10.95;8.02;;;10.60;99.90;;;;;;4927604;29;20550;-64
2023/04/28 07:51:22;;;;;;;11.93;8.10;;;10.70;99.90;;;;;;4924322;29;20154;-64
2023/04/28 07:53:47;;;;;;;13.25;7.85;;;10.90;99.90;;;;;;4928180;29;20142;-64
2023/04/28 07:56:13;;;;;;;11.15;7.88;;;11.00;99.90;;;;;;4931089;29;20042;-64
2023/04/28 07:58:42;;;;;;;12.25;8.07;;;11.10;99.90;;;;;;4928174;29;20098;-63
2023/04/28 08:01:07;;;;;;;12.35;7.80;;;11.20;99.90;;;;;;4932514;29;20043;-66
2023/04/28 08:03:33;;;;;;;12.70;8.45;;;11.20;99.90;;;;;;4933398;29;20368;-65
2023/04/28 08:06:00;;;;;;;14.13;8.23;;;11.20;99.90;;;;;;4934037;29;20142;-64
2023/04/28 08:08:26;;;;;;;13.73;7.75;;;11.20;99.90;;;;;;4933054;29;20051;-64
2023/04/28 08:10:51;;;;;;;12.13;7.68;;;11.30;99.90;;;;;;4930302;29;20337;-65
2023/04/28 08:13:18;;;;;;;12.15;7.93;;;11.50;99.90;;;;;;4923988;29;20047;-64
2023/04/28 08:15:43;;;;;;;11.88;7.38;;;11.60;99.90;;;;;;4925024;29;20055;-64
2023/04/28 08:18:09;;;;;;;12.80;8.00;;;11.70;99.90;;;;;;4925365;29;20464;-64
2023/04/28 08:20:35;;;;;;;10.98;7.53;;;11.80;99.90;;;;;;4925119;29;20053;-66
2023/04/28 08:23:00;;;;;;;13.60;7.63;;;11.90;99.90;;;;;;4923974;29;20048;-64
2023/04/28 08:25:26;;;;;;;11.60;7.47;;;11.90;99.90;;;;;;4925203;29;20082;-65
2023/04/28 08:27:52;;;;;;;14.88;7.75;;;11.90;99.90;;;;;;4921486;29;20044;-64
2023/04/28 08:30:17;;;;;;;12.50;7.95;;;12.00;99.90;;;;;;4922287;29;20088;-63
2023/04/28 08:32:43;;;;;;;11.05;8.02;;;12.10;99.90;;;;;;4925344;29;20152;-65
2023/04/28 08:35:09;;;;;;;11.70;7.93;;;12.20;99.90;;;;;;4923698;29;20040;-66
2023/04/28 08:37:34;;;;;;;10.82;7.90;;;12.30;99.90;;;;;;4927031;29;20091;-64
2023/04/28 08:40:01;;;;;;;10.35;7.40;;;12.40;99.90;;;;;;4924305;29;20048;-65
2023/04/28 08:42:30;;;;;;;9.57;7.32;;;12.60;99.90;;;;;;4922706;29;20062;-64
2023/04/28 08:44:58;;;;;;;13.95;8.52;;;12.70;99.90;;;;;;4922755;29;20043;-65
2023/04/28 08:47:44;;;;;;;16.48;8.13;;;12.80;99.90;;;;;;4923121;29;20075;-66
2023/04/28 08:50:11;;;;;;;12.10;7.97;;;13.00;99.90;;;;;;4908943;29;20064;-65
2023/04/28 08:52:42;;;;;;;13.30;7.75;;;13.00;99.90;;;;;;4921885;29;20071;-66
2023/04/28 08:55:09;;;;;;;11.10;8.02;;;13.00;99.90;;;;;;4926088;29;20062;-66
2023/04/28 08:57:45;;;;;;;12.60;7.68;;;13.00;99.90;;;;;;4926142;29;20040;-66
2023/04/28 09:00:11;;;;;;;10.27;7.43;;;13.00;99.90;;;;;;4924875;29;20045;-65
2023/04/28 09:02:40;;;;;;;11.07;7.78;;;13.00;99.90;;;;;;4920730;29;20404;-65
2023/04/28 09:05:10;;;;;;;15.88;8.25;;;13.00;99.90;;;;;;4924462;29;20062;-65
2023/04/28 09:07:36;;;;;;;12.30;8.20;;;13.00;99.90;;;;;;4929494;29;20154;-66
2023/04/28 09:10:21;;;;;;;13.32;7.80;;;13.00;99.90;;;;;;4932570;29;20151;-66
2023/04/28 09:12:49;;;;;;;12.40;8.07;;;13.00;99.90;;;;;;4936713;29;20046;-66
2023/04/28 09:15:44;;;;;;;12.25;7.45;;;13.10;99.90;;;;;;4935894;29;20060;-66
2023/04/28 09:18:14;;;;;;;10.30;7.40;;;13.20;99.90;;;;;;4919394;29;20059;-66
2023/04/28 09:20:40;;;;;;;10.60;7.25;;;13.30;99.90;;;;;;4934818;29;20044;-64
2023/04/28 09:23:21;;;;;;;11.70;8.07;;;13.40;99.90;;;;;;4927671;29;20051;-65
2023/04/28 09:26:06;;;;;;;11.77;8.07;;;13.50;99.90;;;;;;4925822;29;20502;-65
2023/04/28 09:28:34;;;;;;;13.45;7.85;;;13.60;99.90;;;;;;4927436;29;20060;-65
2023/04/28 09:31:00;;;;;;;11.77;7.47;;;13.60;99.90;;;;;;4929189;29;20484;-67
2023/04/28 09:33:26;;;;;;;11.68;7.80;;;13.80;99.90;;;;;;4929707;29;20047;-66
2023/04/28 09:35:52;;;;;;;11.02;7.65;;;14.00;99.90;;;;;;4930994;29;20043;-66
2023/04/28 09:38:20;;;;;;;11.18;7.78;;;14.10;99.90;;;;;;4929485;29;20043;-65
2023/04/28 09:40:54;;;;;;;13.10;7.70;;;14.20;99.90;;;;;;4934329;29;20071;-65
2023/04/28 09:43:35;;;;;;;13.40;7.82;;;14.50;99.90;;;;;;4935727;29;20044;-65
2023/04/28 09:46:03;;;;;;;10.80;7.60;;;14.70;99.90;;;;;;4934655;29;20475;-65
2023/04/28 09:48:33;;;;;;;13.25;7.85;;;14.80;99.90;;;;;;4935085;29;20055;-66
2023/04/28 09:51:01;;;;;;;11.57;7.70;;;15.10;99.90;;;;;;4936403;29;20181;-65
2023/04/28 09:53:27;;;;;;;10.50;7.60;;;15.30;99.90;;;;;;4929551;29;20537;-65
2023/04/28 09:55:55;;;;;;;11.35;7.95;;;15.60;99.90;;;;;;4918459;29;20044;-65
2023/04/28 09:58:22;;;;;;;11.55;7.97;;;15.60;99.90;;;;;;4937342;28;20114;-66
2023/04/28 10:00:56;;;;;;;11.68;7.70;;;15.80;99.90;;;;;;4929700;29;20040;-65
2023/04/28 10:03:27;;;;;;;11.60;8.25;;;16.10;99.90;;;;;;4926510;29;20179;-66
2023/04/28 10:05:53;;;;;;;11.52;8.05;;;16.10;99.90;;;;;;4924883;29;20503;-65
2023/04/28 10:08:20;;;;;;;10.98;7.40;;;16.10;99.90;;;;;;4920324;29;20143;-65
2023/04/28 10:10:48;;;;;;;11.52;6.70;;;16.20;99.90;;;;;;4917938;29;20056;-66
2023/04/28 10:13:18;;;;;;;10.35;7.45;;;16.20;99.90;;;;;;4933718;29;20062;-65
2023/04/28 10:15:47;;;;;;;12.38;7.97;;;16.40;99.90;;;;;;4934236;29;20432;-64
2023/04/28 10:18:14;;;;;;;9.55;6.28;;;16.40;99.90;;;;;;4933999;29;20048;-66
2023/04/28 10:20:56;;;;;;;10.25;7.43;;;16.40;99.90;;;;;;4933407;29;20078;-66
2023/04/28 10:23:37;;;;;;;10.95;7.38;;;16.40;99.90;;;;;;4917709;29;20052;-64
2023/04/28 10:26:09;;;;;;;12.32;6.97;;;16.30;99.90;;;;;;4916359;29;20464;-65
2023/04/28 10:28:35;;;;;;;9.85;7.22;;;16.10;99.90;;;;;;4916502;29;20076;-65
2023/04/28 10:31:19;;;;;;;10.52;7.28;;;16.00;99.90;;;;;;4917257;29;20119;-65
2023/04/28 10:33:45;;;;;;;11.05;6.78;;;15.90;99.90;;;;;;4916226;29;20055;-63
2023/04/28 10:36:46;;;;;;;10.32;7.40;;;16.00;99.90;;;;;;4916339;29;20040;-66
2023/04/28 10:39:11;;;;;;;9.00;7.22;;;16.10;99.90;;;;;;4916627;29;20059;-65
2023/04/28 10:41:37;;;;;;;9.45;7.43;;;16.10;99.90;;;;;;4918586;29;20056;-65
2023/04/28 10:44:31;;;;;;;10.23;7.18;;;16.10;99.90;;;;;;4935523;29;20047;-65
2023/04/28 10:47:08;;;;;;;11.15;7.00;;;16.10;99.90;;;;;;4919859;29;20173;-64
2023/04/28 10:49:59;;;;;;;10.63;7.60;;;16.00;99.90;;;;;;4934825;29;20055;-64
2023/04/28 10:52:38;;;;;;;10.05;7.70;;;15.90;99.90;;;;;;4932099;29;20356;-64
2023/04/28 10:55:32;;;;;;;10.05;7.82;;;15.90;99.90;;;;;;4915581;29;20056;-65
2023/04/28 10:58:16;;;;;;;10.68;7.85;;;16.00;99.90;;;;;;4915900;29;20066;-65
2023/04/28 11:00:51;;;;;;;11.50;8.15;;;16.00;99.90;;;;;;4917944;29;20136;-65
2023/04/28 11:03:35;;;;;;;11.48;8.23;;;15.90;99.90;;;;;;4934814;29;20087;-64
2023/04/28 11:06:19;;;;;;;12.10;8.37;;;15.80;99.90;;;;;;4935244;29;20058;-65
2023/04/28 11:08:45;;;;;;;12.25;8.90;;;15.90;99.90;;;;;;4934858;29;20211;-65
2023/04/28 11:11:20;;;;;;;14.40;9.15;;;15.80;99.90;;;;;;4924640;29;20123;-64
2023/04/28 11:13:46;;;;;;;11.75;9.25;;;15.80;99.90;;;;;;4933508;29;20052;-63
2023/04/28 11:16:18;;;;;;;14.40;9.73;;;15.70;99.90;;;;;;4933966;29;20056;-65
2023/04/28 11:19:03;;;;;;;13.43;9.48;;;15.60;99.90;;;;;;4934642;29;20040;-65
2023/04/28 11:21:29;;;;;;;14.65;10.68;;;15.40;99.90;;;;;;4933919;29;20100;-64
2023/04/28 11:23:57;;;;;;;14.27;10.80;;;15.20;99.90;;;;;;4930555;29;20397;-64
2023/04/28 11:26:23;;;;;;;15.57;11.63;;;15.20;99.90;;;;;;4929453;29;20074;-65
2023/04/28 11:28:51;;;;;;;18.08;13.50;;;15.10;99.90;;;;;;4915659;29;20048;-66
2023/04/28 11:31:19;;;;;;;23.67;15.25;;;15.10;99.90;;;;;;4927996;29;20048;-65
2023/04/28 11:33:50;;;;;;;21.58;14.70;;;15.20;99.90;;;;;;4933631;29;20078;-65
2023/04/28 11:36:42;;;;;;;21.10;15.90;;;15.20;99.90;;;;;;4934243;29;20055;-65
2023/04/28 11:39:10;;;;;;;22.25;16.98;;;15.30;99.90;;;;;;4932125;29;20060;-65
2023/04/28 11:41:38;;;;;;;23.02;16.20;;;15.30;99.90;;;;;;4918639;29;20055;-64
2023/04/28 11:44:14;;;;;;;23.00;16.77;;;15.30;99.90;;;;;;4934125;29;20039;-65
2023/04/28 11:47:00;;;;;;;26.45;19.70;;;15.30;99.90;;;;;;4933950;29;20052;-65
2023/04/28 11:49:32;;;;;;;27.50;17.63;;;15.30;99.90;;;;;;4934599;29;20042;-65
2023/04/28 11:52:04;;;;;;;23.13;18.02;;;15.30;99.90;;;;;;4932360;29;20047;-66
2023/04/28 11:54:37;;;;;;;22.50;19.35;;;15.30;99.90;;;;;;5088158;27;20386;-65
2023/04/28 11:57:04;;;;;;;22.92;18.17;;;15.30;99.90;;;;;;5087889;28;20421;-65
2023/04/28 11:59:34;;;;;;;22.67;19.92;;;15.30;99.90;;;;;;5083796;28;20041;-64
2023/04/28 12:02:01;;;;;;;23.45;18.85;;;15.00;99.90;;;;;;5067548;28;20071;-64
2023/04/28 12:04:34;;;;;;;24.58;20.52;;;15.00;99.90;;;;;;5068051;28;20155;-64
2023/04/28 12:07:15;;;;;;;25.50;19.67;;;15.00;99.90;;;;;;5067759;28;20060;-65
2023/04/28 12:10:08;;;;;;;22.88;19.98;;;15.00;99.90;;;;;;5068068;28;20049;-65
2023/04/28 12:12:34;;;;;;;24.83;20.75;;;15.00;99.90;;;;;;5078155;28;20097;-64
2023/04/28 12:15:05;;;;;;;26.15;21.85;;;14.90;99.90;;;;;;5067878;28;20045;-64
2023/04/28 12:17:33;;;;;;;26.25;22.60;;;14.90;99.90;;;;;;5066761;28;20059;-65
2023/04/28 12:20:01;;;;;;;25.02;21.92;;;14.80;99.90;;;;;;5081731;28;20063;-64
2023/04/28 12:22:27;;;;;;;28.30;22.70;;;14.90;99.90;;;;;;5059105;28;20054;-65
2023/04/28 12:25:06;;;;;;;26.80;20.98;;;14.80;99.90;;;;;;5047787;28;20132;-64
2023/04/28 12:27:33;;;;;;;25.90;21.45;;;14.80;99.90;;;;;;5047460;28;20068;-64
2023/04/28 12:29:58;;;;;;;28.88;22.50;;;14.80;99.90;;;;;;5047514;28;20037;-65
2023/04/28 12:32:42;;;;;;;24.58;21.98;;;14.90;99.90;;;;;;5047429;28;20037;-64
2023/04/28 12:35:08;;;;;;;26.90;24.08;;;14.90;99.90;;;;;;5047186;28;20045;-63
2023/04/28 12:37:34;;;;;;;29.38;26.23;;;14.90;99.90;;;;;;5046759;28;20049;-65
2023/04/28 12:40:03;;;;;;;31.20;26.40;;;14.80;99.90;;;;;;5047521;28;20041;-63
2023/04/28 12:42:28;;;;;;;30.52;27.05;;;14.80;99.90;;;;;;5047048;28;20060;-64
2023/04/28 12:44:55;;;;;;;30.63;27.35;;;14.70;99.90;;;;;;5047368;28;20034;-64